This is the latest recevied weather packets stored in our database for station/object N9WHM. If no packets are shown the sender has not sent any weather packets the latest 10 day(s).
| Time | Temp. | Humidity | Pressure | Rain* | Wind** | Luminosity | Snow |
|---|---|---|---|---|---|---|---|
| 1778281461 | 25.56° C | 21% | 1004.2 hPa | 0 mm | - | 79 W/m² | - |
| 1778281159 | 26.11° C | 21% | 1004.4 hPa | 0 mm | - | 75 W/m² | - |
| 1778280855 | 26.11° C | 21% | 1004.3 hPa | 0 mm | - | 315 W/m² | - |
| 1778280553 | 26.67° C | 22% | 1004 hPa | 0 mm | - | 103 W/m² | - |
| 1778280250 | 26.67° C | 23% | 1004 hPa | 0 mm | - | 372 W/m² | - |
| 1778279948 | 26.11° C | 22% | 1004 hPa | 0 mm | - | 387 W/m² | - |
| 1778279645 | 26.11° C | 23% | 1004.1 hPa | 0 mm | - | 330 W/m² | - |
| 1778279342 | 26.11° C | 23% | 1004 hPa | 0 mm | - | 258 W/m² | - |
| 1778279039 | 26.67° C | 22% | 1004.1 hPa | 0 mm | - | 402 W/m² | - |
| 1778278736 | 26.67° C | 22% | 1004 hPa | 0 mm | - | 433 W/m² | - |
| 1778278431 | 26.11° C | 21% | 1003.9 hPa | 0 mm | - | 474 W/m² | - |
| 1778278128 | 25.56° C | 23% | 1004.1 hPa | 0 mm | - | 183 W/m² | - |
| 1778277824 | 26.67° C | 22% | 1004 hPa | 0 mm | - | 464 W/m² | - |
| 1778277521 | 26.67° C | 23% | 1003.8 hPa | 0 mm | - | 490 W/m² | - |
| 1778277218 | 26.67° C | 23% | 1004.1 hPa | 0 mm | - | 487 W/m² | - |
| 1778276915 | 26.11° C | 22% | 1004 hPa | 0 mm | - | 500 W/m² | - |
| 1778276612 | 26.11° C | 23% | 1004.1 hPa | 0 mm | - | 306 W/m² | - |
| 1778276308 | 26.67° C | 23% | 1004.2 hPa | 0 mm | - | 554 W/m² | - |
| 1778276005 | 26.11° C | 23% | 1004.2 hPa | 0 mm | - | 542 W/m² | - |
| 1778275701 | 25.56° C | 25% | 1004.3 hPa | 0 mm | - | 588 W/m² | - |
| 1778275398 | 25° C | 26% | 1004.4 hPa | 0 mm | - | 151 W/m² | - |
| 1778275094 | 25° C | 25% | 1004.5 hPa | 0 mm | - | 156 W/m² | - |
| 1778274789 | 25.56° C | 25% | 1004.4 hPa | 0 mm | - | 667 W/m² | - |
| 1778274488 | 25° C | 25% | 1004.6 hPa | 0 mm | - | 201 W/m² | - |
| 1778274184 | 25° C | 25% | 1004.7 hPa | 0 mm | - | 205 W/m² | - |
* Rain latest hour (hover to see other rain measurements)
** Current wind speed in m/s (hover to see current wind gust speed)